This is the latest recevied weather packets stored in our database for station/object IU7LMH-13. If no packets are shown the sender has not sent any weather packets the latest 10 day(s).
| Time | Temp. | Humidity | Pressure | Rain* | Wind** | Luminosity | Snow |
|---|---|---|---|---|---|---|---|
| 1777548157 | 16.11° C | 89% | 1017.7 hPa | 0 mm | - | - | - |
| 1777546957 | 16.67° C | 89% | 1017.8 hPa | 0.25 mm | - | - | - |
| 1777546477 | 16.67° C | 89% | 1017.8 hPa | 0.25 mm | - | - | - |
| 1777545277 | 16.11° C | 90% | 1017.7 hPa | 0.25 mm | - | - | - |
| 1777544797 | 16.11° C | 90% | 1017.7 hPa | 0.51 mm | - | - | - |
| 1777544677 | 16.11° C | 90% | 1017.7 hPa | 0.51 mm | - | - | - |
| 1777543843 | 15.56° C | 89% | 1017.6 hPa | 1.27 mm | - | - | - |
| 1777542877 | 15° C | 89% | 1017.7 hPa | 1.78 mm | - | - | - |
| 1777541557 | 15° C | 89% | 1017.8 hPa | 2.29 mm | - | - | - |
| 1777540841 | 15° C | 89% | 1017.7 hPa | 2.03 mm | - | - | - |
| 1777540718 | 15° C | 89% | 1017.7 hPa | 2.03 mm | - | - | - |
| 1777540478 | 15° C | 88% | 1017.8 hPa | 1.78 mm | - | - | - |
| 1777540244 | 15° C | 88% | 1017.8 hPa | 1.27 mm | - | - | - |
| 1777540117 | 15° C | 88% | 1017.9 hPa | 1.27 mm | - | - | - |
| 1777538677 | 15.56° C | 86% | 1017.5 hPa | 0.51 mm | - | - | - |
| 1777537844 | 16.67° C | 88% | 1017.3 hPa | 0.25 mm | - | - | - |
| 1777537241 | 16.67° C | 88% | 1017.3 hPa | 0.76 mm | - | - | - |
| 1777537119 | 16.67° C | 87% | 1017.3 hPa | 0.76 mm | - | - | - |
| 1777534476 | 16.67° C | 85% | 1016.9 hPa | 1.02 mm | - | - | - |
| 1777534118 | 16.67° C | 83% | 1016.8 hPa | 1.02 mm | - | - | - |
| 1777533640 | 17.78° C | 80% | 1016.2 hPa | 0.51 mm | - | - | - |
| 1777533517 | 17.78° C | 79% | 1016.3 hPa | 0.51 mm | - | - | - |
| 1777532444 | 20° C | 68% | 1016.2 hPa | 0 mm | - | - | - |
| 1777532197 | 20° C | 67% | 1016.3 hPa | 0 mm | - | - | - |
| 1777531956 | 20° C | 67% | 1016.2 hPa | 0 mm | - | - | - |
* Rain latest hour (hover to see other rain measurements)
** Current wind speed in m/s (hover to see current wind gust speed)